createdAt,value
2018-12-26T00:01:52.961Z,1.70
2018-12-26T00:08:36.395Z,1.70
2018-12-26T00:15:19.918Z,1.70
2018-12-26T00:22:03.278Z,1.60
2018-12-26T00:28:46.721Z,1.60
2018-12-26T00:35:30.467Z,1.60
2018-12-26T00:42:13.986Z,1.70
2018-12-26T00:48:57.625Z,1.70
2018-12-26T00:55:41.050Z,1.70
2018-12-26T01:02:24.713Z,1.50
2018-12-26T01:09:08.886Z,1.40
2018-12-26T01:15:52.305Z,1.40
2018-12-26T01:22:35.721Z,1.40
2018-12-26T01:29:19.133Z,1.40
2018-12-26T01:36:02.618Z,1.20
2018-12-26T01:42:46.042Z,1.10
2018-12-26T01:49:29.487Z,1.20
2018-12-26T01:56:12.929Z,1.10
2018-12-26T02:02:56.358Z,1.00
2018-12-26T02:09:39.781Z,1.00
2018-12-26T02:16:23.189Z,1.00
2018-12-26T02:23:06.641Z,0.90
2018-12-26T02:29:50.057Z,0.80
2018-12-26T02:36:33.485Z,0.90
2018-12-26T02:43:16.900Z,0.90
2018-12-26T02:50:00.317Z,0.90
2018-12-26T02:56:47.829Z,1.00
2018-12-26T03:03:27.233Z,1.20
2018-12-26T03:10:10.682Z,1.20
2018-12-26T03:16:54.114Z,1.20
2018-12-26T03:23:37.541Z,1.20
2018-12-26T03:30:20.963Z,1.20
2018-12-26T03:37:04.403Z,1.20
2018-12-26T03:43:48.116Z,1.20
2018-12-26T03:57:24.410Z,1.40
2018-12-26T04:04:07.881Z,1.40
2018-12-26T04:10:51.381Z,1.30
2018-12-26T04:17:34.837Z,1.20
2018-12-26T04:24:18.291Z,1.20
2018-12-26T04:31:01.753Z,1.20
2018-12-26T04:37:45.230Z,1.10
2018-12-26T04:44:28.709Z,1.20
2018-12-26T04:51:12.197Z,1.10
2018-12-26T05:04:51.898Z,1.10
2018-12-26T05:11:35.361Z,1.20
2018-12-26T05:18:18.813Z,1.20
2018-12-26T05:25:02.287Z,1.20
2018-12-26T05:31:45.753Z,1.10
2018-12-26T05:38:29.209Z,1.10
2018-12-26T05:45:12.702Z,1.10
2018-12-26T05:51:56.205Z,1.20
2018-12-26T05:58:39.691Z,1.10
2018-12-26T06:05:23.162Z,1.10
2018-12-26T06:12:06.629Z,1.10
2018-12-26T06:18:50.098Z,1.10
2018-12-26T06:25:33.624Z,1.00
2018-12-26T06:32:17.109Z,0.90
2018-12-26T06:39:00.578Z,0.90
2018-12-26T06:45:44.053Z,0.90
2018-12-26T06:52:27.546Z,0.90
2018-12-26T06:59:11.009Z,0.90
2018-12-26T07:05:54.552Z,0.80
2018-12-26T07:12:37.965Z,0.70
2018-12-26T07:19:21.427Z,0.60
2018-12-26T07:26:04.892Z,0.60
2018-12-26T07:32:48.365Z,0.60
2018-12-26T07:39:31.828Z,0.60
2018-12-26T07:46:15.364Z,0.50
2018-12-26T07:52:58.809Z,0.50
2018-12-26T07:59:42.273Z,0.50
2018-12-26T08:06:25.758Z,0.60
2018-12-26T08:13:09.225Z,0.60
2018-12-26T08:19:52.682Z,0.70
2018-12-26T08:26:36.137Z,0.70
2018-12-26T08:33:19.587Z,0.60
2018-12-26T08:40:03.128Z,0.80
2018-12-26T08:46:46.621Z,0.80
2018-12-26T08:53:30.082Z,0.90
2018-12-26T09:00:13.569Z,0.80
2018-12-26T09:16:11.493Z,0.90
2018-12-26T09:22:54.946Z,1.00
2018-12-26T09:29:38.429Z,1.40
2018-12-26T09:36:21.921Z,1.40
2018-12-26T09:43:05.377Z,1.50
2018-12-26T09:49:48.855Z,1.40
2018-12-26T09:56:32.305Z,1.40
2018-12-26T10:03:15.770Z,1.60
2018-12-26T10:09:59.233Z,1.90
2018-12-26T10:16:42.694Z,1.60
2018-12-26T10:23:26.174Z,1.00
2018-12-26T10:30:09.737Z,1.10
2018-12-26T10:36:53.241Z,1.40
2018-12-26T10:43:36.712Z,1.70
2018-12-26T10:50:20.174Z,1.90
2018-12-26T10:57:03.656Z,2.20
2018-12-26T11:03:47.123Z,2.60
2018-12-26T11:10:30.575Z,2.60
2018-12-26T11:17:14.054Z,2.50
2018-12-26T11:23:57.509Z,2.60
2018-12-26T11:30:40.989Z,2.90
2018-12-26T11:37:24.449Z,2.80
2018-12-26T11:44:07.909Z,3.00
2018-12-26T11:50:51.365Z,3.00
2018-12-26T11:57:36.844Z,2.90
2018-12-26T12:04:18.329Z,2.80
2018-12-26T12:11:01.789Z,3.00
2018-12-26T12:17:45.260Z,3.10
2018-12-26T12:24:28.753Z,2.80
2018-12-26T12:31:12.232Z,2.90
2018-12-26T12:37:55.694Z,2.60
2018-12-26T12:44:39.177Z,3.00
2018-12-26T12:51:22.637Z,2.90
2018-12-26T12:58:06.125Z,2.70
2018-12-26T13:04:49.584Z,3.00
2018-12-26T13:11:33.060Z,2.70
2018-12-26T13:18:16.514Z,2.60
2018-12-26T13:25:02.089Z,2.20
2018-12-26T13:31:45.543Z,2.00
2018-12-26T13:38:29.366Z,1.80
2018-12-26T13:45:13.037Z,2.00
2018-12-26T13:51:56.587Z,1.90
2018-12-26T13:58:40.156Z,1.70
2018-12-26T14:05:23.725Z,1.70
2018-12-26T14:12:07.260Z,1.80
2018-12-26T14:18:50.756Z,1.80
2018-12-26T14:25:34.322Z,2.10
2018-12-26T14:32:17.938Z,1.90
2018-12-26T14:39:01.538Z,1.60
2018-12-26T14:45:45.067Z,1.40
2018-12-26T14:52:28.552Z,1.30
2018-12-26T14:59:12.041Z,1.10
2018-12-26T15:05:55.510Z,1.00
2018-12-26T15:12:38.979Z,0.90
2018-12-26T15:19:22.445Z,0.60
2018-12-26T15:26:05.901Z,0.40
2018-12-26T15:32:49.354Z,0.30
2018-12-26T15:39:32.825Z,0.10
2018-12-26T15:46:16.285Z,0.00
2018-12-26T15:52:59.762Z,-0.20
2018-12-26T15:59:43.291Z,-0.20
2018-12-26T16:06:26.805Z,-0.10
2018-12-26T16:13:10.785Z,-0.20
2018-12-26T16:19:54.262Z,-0.30
2018-12-26T16:26:37.726Z,-0.40
2018-12-26T16:33:21.226Z,-0.50
2018-12-26T16:40:05.270Z,-0.50
2018-12-26T16:46:48.729Z,-0.60
2018-12-26T16:53:32.881Z,-0.70
2018-12-26T17:00:16.339Z,-0.70
2018-12-26T17:06:59.806Z,-0.60
2018-12-26T17:13:43.288Z,-0.60
2018-12-26T17:20:27.214Z,-0.70
2018-12-26T17:27:10.686Z,-0.70
2018-12-26T17:33:54.182Z,-0.80
2018-12-26T17:40:37.682Z,-0.70
2018-12-26T17:47:21.180Z,-0.70
2018-12-26T17:54:17.526Z,-0.70
2018-12-26T18:01:13.489Z,-0.70
2018-12-26T18:07:56.961Z,-0.70
2018-12-26T18:14:40.445Z,-0.70
2018-12-26T18:21:23.915Z,-0.70
2018-12-26T18:28:07.642Z,-0.70
2018-12-26T18:34:51.117Z,-0.80
2018-12-26T18:41:34.573Z,-0.90
2018-12-26T18:48:18.046Z,-0.90
2018-12-26T18:55:01.505Z,-1.00
2018-12-26T19:01:44.968Z,-1.00
2018-12-26T19:08:28.449Z,-0.90
2018-12-26T19:15:11.919Z,-0.80
2018-12-26T19:21:55.417Z,-0.80
2018-12-26T19:28:38.902Z,-0.80
2018-12-26T19:35:22.417Z,-0.70
2018-12-26T19:42:05.913Z,-0.70
2018-12-26T19:48:49.386Z,-0.80
2018-12-26T19:55:32.861Z,-0.90
2018-12-26T20:02:16.337Z,-0.80
2018-12-26T20:08:59.793Z,-0.80
2018-12-26T20:15:43.399Z,-0.90
2018-12-26T20:22:26.930Z,-1.00
2018-12-26T20:29:10.403Z,-1.10
2018-12-26T20:35:53.900Z,-1.10
2018-12-26T20:42:37.386Z,-1.20
2018-12-26T20:49:20.890Z,-1.30
2018-12-26T20:56:04.365Z,-1.30
2018-12-26T21:02:47.829Z,-1.40
2018-12-26T21:09:31.297Z,-1.40
2018-12-26T21:16:14.825Z,-1.50
2018-12-26T21:22:58.306Z,-1.50
2018-12-26T21:29:41.816Z,-1.50
2018-12-26T21:36:25.318Z,-1.50
2018-12-26T21:43:08.781Z,-1.50
2018-12-26T21:49:52.246Z,-1.40
2018-12-26T21:56:35.709Z,-1.40
2018-12-26T22:03:19.185Z,-1.40
2018-12-26T22:10:56.421Z,-1.40
2018-12-26T22:17:39.849Z,-1.50
2018-12-26T22:24:23.298Z,-1.60
2018-12-26T22:31:06.721Z,-1.60
2018-12-26T22:37:50.919Z,-1.70
2018-12-26T22:44:34.413Z,-1.80
2018-12-26T22:51:18.532Z,-1.90
2018-12-26T22:58:01.970Z,-2.00
2018-12-26T23:04:46.173Z,-2.00
2018-12-26T23:11:30.214Z,-2.00
2018-12-26T23:18:13.633Z,-2.10
2018-12-26T23:24:57.354Z,-2.00
2018-12-26T23:31:41.509Z,-2.00
2018-12-26T23:38:24.954Z,-2.00
2018-12-26T23:45:08.657Z,-2.00
2018-12-26T23:51:52.689Z,-2.00
2018-12-26T23:58:36.638Z,-2.00
